Time;durP1;ratioP1;P1;durP2;ratioP2;P2;SDS_P1;SDS_P2;PMS_P1;PMS_P2;Temp;Humidity;BMP_temperature;BMP_pressure;BME280_temperature;BME280_humidity;BME280_pressure;Samples;Min_cycle;Max_cycle;Signal;HPM_P1;HPM_P2
2021/09/16 00:02:12;;;;;;;1.02;0.57;;;;;;;15.44;100.00;100963.09;6227100;28;20058;-78
2021/09/16 00:05:13;;;;;;;0.60;0.60;;;;;;;15.47;100.00;100980.53;6226010;28;20060;-78
2021/09/16 00:08:15;;;;;;;0.68;0.57;;;;;;;15.46;100.00;100982.34;6227118;28;20046;-78
2021/09/16 00:11:18;;;;;;;0.50;0.47;;;;;;;15.41;100.00;100976.53;6226590;28;20060;-78
2021/09/16 00:14:21;;;;;;;0.50;0.40;;;;;;;15.36;100.00;100977.81;6227106;28;20501;-78
2021/09/16 00:17:22;;;;;;;1.20;0.90;;;;;;;15.38;100.00;100974.09;6226351;28;20640;-78
2021/09/16 00:20:23;;;;;;;1.63;1.00;;;;;;;15.38;100.00;100978.53;6227445;28;20079;-77
2021/09/16 00:23:25;;;;;;;0.93;0.80;;;;;;;15.32;100.00;100979.81;6226623;28;20057;-77
2021/09/16 00:26:27;;;;;;;1.40;0.70;;;;;;;15.35;100.00;100989.34;6226842;28;20057;-78
2021/09/16 00:29:29;;;;;;;0.50;0.50;;;;;;;15.35;100.00;100984.91;6251003;23;20057;-76
2021/09/16 00:32:30;;;;;;;1.38;0.52;;;;;;;15.34;100.00;100992.94;6272596;28;20049;-76
2021/09/16 00:35:32;;;;;;;1.10;0.60;;;;;;;15.32;100.00;100986.94;6271279;28;20065;-78
2021/09/16 00:38:33;;;;;;;0.25;0.25;;;;;;;15.39;100.00;100991.66;6267312;28;20048;-75
2021/09/16 00:41:36;;;;;;;0.30;0.30;;;;;;;15.37;100.00;100992.75;6247732;28;20053;-78
2021/09/16 00:44:37;;;;;;;0.40;0.30;;;;;;;15.29;100.00;101003.84;6247861;28;20060;-77
2021/09/16 00:47:42;;;;;;;0.50;0.32;;;;;;;15.29;100.00;101000.38;6247818;28;20519;-77
2021/09/16 00:50:43;;;;;;;1.40;0.35;;;;;;;15.18;100.00;100993.16;6247844;28;20057;-75
2021/09/16 00:53:47;;;;;;;0.15;0.15;;;;;;;15.19;100.00;100998.34;6247745;28;20049;-75
2021/09/16 00:56:51;;;;;;;0.88;0.30;;;;;;;15.08;100.00;100998.25;6247592;28;20064;-76
2021/09/16 00:59:54;;;;;;;0.35;0.30;;;;;;;15.05;100.00;101008.19;6259018;28;20041;-78
2021/09/16 01:02:55;;;;;;;0.20;0.20;;;;;;;15.01;100.00;100999.59;6272468;28;20045;-77
2021/09/16 01:05:57;;;;;;;0.20;0.20;;;;;;;14.98;100.00;101013.88;6272866;28;20063;-77
2021/09/16 01:08:58;;;;;;;1.27;0.40;;;;;;;15.00;100.00;101016.44;6272617;28;20045;-77
2021/09/16 01:12:01;;;;;;;0.55;0.32;;;;;;;14.94;100.00;101017.72;6272554;28;20048;-77
2021/09/16 01:15:03;;;;;;;0.35;0.30;;;;;;;14.92;100.00;101011.66;6272507;28;20048;-76
2021/09/16 01:18:04;;;;;;;0.28;0.28;;;;;;;14.87;100.00;101007.63;6272779;28;20049;-77
2021/09/16 01:21:06;;;;;;;0.30;0.30;;;;;;;14.93;100.00;101016.00;6272644;28;20049;-77
2021/09/16 01:24:09;;;;;;;1.65;0.30;;;;;;;14.86;100.00;101014.72;6272550;28;20504;-77
2021/09/16 01:27:10;;;;;;;0.38;0.32;;;;;;;14.87;100.00;101011.13;6272353;28;20419;-78
2021/09/16 01:30:12;;;;;;;0.30;0.30;;;;;;;14.84;100.00;101015.78;6272332;28;20049;-77
2021/09/16 01:33:13;;;;;;;0.22;0.22;;;;;;;14.83;100.00;101017.56;6272714;28;20052;-78
2021/09/16 01:36:15;;;;;;;0.35;0.35;;;;;;;14.80;100.00;101015.13;6272830;28;20049;-78
2021/09/16 01:39:18;;;;;;;0.93;0.20;;;;;;;14.83;100.00;101022.03;6272321;28;20045;-79
2021/09/16 01:42:20;;;;;;;0.25;0.25;;;;;;;14.92;100.00;101016.09;6272169;28;20065;-76
2021/09/16 01:45:23;;;;;;;3.45;1.58;;;;;;;14.77;100.00;101022.44;6271789;28;20051;-78
2021/09/16 01:48:26;;;;;;;1.42;0.40;;;;;;;14.74;100.00;101017.34;6271885;28;20049;-78
2021/09/16 01:51:27;;;;;;;0.22;0.20;;;;;;;14.72;100.00;101022.75;6274950;28;20049;-78
2021/09/16 01:54:30;;;;;;;0.80;0.32;;;;;;;14.73;100.00;101021.78;6276874;28;20047;-78
2021/09/16 01:57:31;;;;;;;0.82;0.40;;;;;;;14.69;100.00;101023.78;6276929;28;20532;-78
2021/09/16 02:00:33;;;;;;;0.28;0.20;;;;;;;14.70;100.00;101024.63;6276788;28;20556;-77
2021/09/16 02:03:34;;;;;;;1.48;0.50;;;;;;;14.68;100.00;101016.81;6277109;28;20045;-77
2021/09/16 02:06:36;;;;;;;0.30;0.22;;;;;;;14.69;100.00;101015.00;6277496;28;20051;-78
2021/09/16 02:09:38;;;;;;;0.30;0.30;;;;;;;14.70;100.00;101024.63;6277268;28;20495;-78
2021/09/16 02:12:40;;;;;;;2.88;0.40;;;;;;;14.67;100.00;101019.53;6276740;28;20393;-78
2021/09/16 02:15:42;;;;;;;0.80;0.75;;;;;;;14.66;100.00;101029.25;6276266;28;20488;-78
2021/09/16 02:18:43;;;;;;;0.10;0.10;;;;;;;14.65;100.00;101022.28;6276607;28;20053;-78
2021/09/16 02:21:45;;;;;;;1.08;0.20;;;;;;;14.65;100.00;101021.44;6275894;28;20052;-79
2021/09/16 02:24:47;;;;;;;0.20;0.20;;;;;;;14.70;100.00;101024.63;6275879;28;20096;-79
2021/09/16 02:27:49;;;;;;;0.30;0.30;;;;;;;14.65;100.00;101022.28;6275780;28;20057;-79
2021/09/16 02:30:50;;;;;;;0.20;0.20;;;;;;;14.67;100.00;101028.34;6275828;28;20045;-80
2021/09/16 02:33:52;;;;;;;0.65;0.22;;;;;;;14.64;100.00;101019.75;6275270;28;20127;-80
2021/09/16 02:36:53;;;;;;;0.30;0.25;;;;;;;14.64;100.00;101025.88;6276106;28;20511;-79
2021/09/16 02:39:56;;;;;;;0.90;0.38;;;;;;;14.65;100.00;101022.28;6275222;28;20059;-79
2021/09/16 02:42:57;;;;;;;0.20;0.20;;;;;;;14.64;100.00;101032.97;6275815;28;20052;-78
2021/09/16 02:45:59;;;;;;;1.35;0.20;;;;;;;14.62;100.00;101032.22;6275640;28;20642;-81
2021/09/16 02:49:01;;;;;;;0.15;0.15;;;;;;;14.62;100.00;101034.84;6275721;28;20049;-79
2021/09/16 02:52:03;;;;;;;0.70;0.20;;;;;;;14.58;100.00;101031.59;6275486;28;20049;-80
2021/09/16 02:55:07;;;;;;;1.48;0.20;;;;;;;14.57;100.00;101029.03;6275660;28;20045;-79
2021/09/16 02:58:08;;;;;;;0.25;0.25;;;;;;;14.54;100.00;101034.53;6275995;28;20053;-79
2021/09/16 03:01:10;;;;;;;0.20;0.20;;;;;;;14.56;100.00;101037.91;6275028;28;20048;-78
2021/09/16 03:04:11;;;;;;;0.17;0.17;;;;;;;14.54;100.00;101035.38;6275234;28;20048;-77
2021/09/16 03:07:12;;;;;;;0.28;0.28;;;;;;;14.55;100.00;101039.72;6275415;28;20048;-77
2021/09/16 03:10:15;;;;;;;0.65;0.65;;;;;;;14.52;100.00;101041.69;6275796;28;20052;-77
2021/09/16 03:13:16;;;;;;;0.50;0.30;;;;;;;14.51;100.00;101051.44;6275587;28;20393;-77
2021/09/16 03:16:18;;;;;;;1.15;0.32;;;;;;;14.53;100.00;101051.31;6275827;28;20044;-78
2021/09/16 03:19:19;;;;;;;0.57;0.35;;;;;;;14.50;100.00;101048.91;6275495;28;20056;-77
2021/09/16 03:22:20;;;;;;;0.30;0.30;;;;;;;14.48;100.00;101051.63;6275778;28;20060;-77
2021/09/16 03:25:23;;;;;;;0.95;0.50;;;;;;;14.47;100.00;101048.09;6275008;28;20049;-78
2021/09/16 03:28:25;;;;;;;0.30;0.30;;;;;;;14.46;100.00;101046.41;6275233;28;20057;-78
2021/09/16 03:31:26;;;;;;;1.38;0.52;;;;;;;14.42;100.00;101036.13;6274929;28;20523;-79
2021/09/16 03:34:28;;;;;;;0.30;0.30;;;;;;;14.46;100.00;101038.47;6274551;28;20056;-79
2021/09/16 03:37:29;;;;;;;3.63;0.50;;;;;;;14.43;100.00;101041.31;6275344;28;20053;-78
2021/09/16 03:40:32;;;;;;;0.22;0.22;;;;;;;14.43;100.00;101043.97;6274987;28;20049;-78
2021/09/16 03:43:33;;;;;;;1.58;0.30;;;;;;;14.46;100.00;101054.34;6274510;28;20059;-78
2021/09/16 03:46:34;;;;;;;0.75;0.30;;;;;;;14.45;100.00;101049.16;6275152;28;20447;-78
2021/09/16 03:49:38;;;;;;;0.77;0.40;;;;;;;14.40;100.00;101053.91;6274731;28;20055;-78
2021/09/16 03:52:40;;;;;;;0.30;0.22;;;;;;;14.41;100.00;101052.94;6274682;28;20060;-77
2021/09/16 03:55:43;;;;;;;0.50;0.47;;;;;;;14.39;100.00;101052.19;6274690;28;20045;-77
2021/09/16 03:58:44;;;;;;;0.28;0.22;;;;;;;14.40;100.00;101053.91;6274862;28;20049;-79
2021/09/16 04:01:45;;;;;;;0.25;0.25;;;;;;;14.39;100.00;101052.19;6274838;28;20060;-79
2021/09/16 04:04:47;;;;;;;4.00;0.25;;;;;;;14.39;100.00;101054.84;6274660;28;20411;-79
2021/09/16 04:07:48;;;;;;;0.50;0.50;;;;;;;14.38;100.00;101056.63;6274250;28;20044;-78
2021/09/16 04:10:51;;;;;;;0.95;0.40;;;;;;;14.34;100.00;101051.63;6274586;28;20063;-79
2021/09/16 04:13:52;;;;;;;0.55;0.35;;;;;;;14.33;100.00;101047.31;6273779;28;20045;-78
2021/09/16 04:16:54;;;;;;;0.20;0.20;;;;;;;14.30;100.00;101048.34;6274147;28;20056;-78
2021/09/16 04:19:55;;;;;;;0.90;0.35;;;;;;;14.31;100.00;101041.28;6274133;28;20060;-79
2021/09/16 04:22:56;;;;;;;0.50;0.20;;;;;;;14.30;100.00;101042.19;6274685;28;20416;-79
2021/09/16 04:25:59;;;;;;;0.05;0.05;;;;;;;14.29;100.00;101040.50;6273683;28;20056;-79
2021/09/16 04:29:02;;;;;;;1.92;0.50;;;;;;;14.30;100.00;101044.84;6274797;28;20053;-77
2021/09/16 04:32:04;;;;;;;0.75;0.20;;;;;;;14.34;100.00;101041.06;6274084;28;20045;-78
2021/09/16 04:35:07;;;;;;;0.30;0.30;;;;;;;14.30;100.00;101045.69;6273590;28;20059;-78
2021/09/16 04:38:08;;;;;;;0.85;0.40;;;;;;;14.29;100.00;101046.66;6274087;28;20049;-80
2021/09/16 04:41:10;;;;;;;0.10;0.10;;;;;;;14.29;100.00;101045.81;6273886;28;20512;-77
2021/09/16 04:44:12;;;;;;;0.47;0.30;;;;;;;14.29;100.00;101053.72;6273505;28;20045;-78
2021/09/16 04:47:13;;;;;;;0.70;0.32;;;;;;;14.28;100.00;101052.03;6273467;28;20045;-79
2021/09/16 04:50:15;;;;;;;0.40;0.40;;;;;;;14.27;100.00;101059.13;6273752;28;20056;-79
2021/09/16 04:53:16;;;;;;;0.20;0.20;;;;;;;14.28;100.00;101065.25;6274009;28;20515;-79
2021/09/16 04:56:18;;;;;;;0.68;0.30;;;;;;;14.24;100.00;101061.94;6274230;28;20045;-78
2021/09/16 04:59:20;;;;;;;0.52;0.30;;;;;;;14.23;100.00;101054.13;6274200;28;20059;-80
2021/09/16 05:02:21;;;;;;;0.32;0.30;;;;;;;14.20;100.00;101056.00;6274823;28;20049;-77
2021/09/16 05:05:22;;;;;;;1.08;0.77;;;;;;;14.19;100.00;101056.13;6272906;28;20049;-78
2021/09/16 05:08:24;;;;;;;0.30;0.30;;;;;;;14.20;100.00;101061.28;6273596;28;20507;-78
2021/09/16 05:11:26;;;;;;;0.32;0.25;;;;;;;14.16;100.00;101056.28;6273494;28;20060;-78
2021/09/16 05:14:28;;;;;;;0.55;0.30;;;;;;;14.11;100.00;101058.38;6273073;28;20052;-77
2021/09/16 05:17:29;;;;;;;0.20;0.20;;;;;;;14.11;100.00;101059.22;6273374;28;20488;-78
2021/09/16 05:20:30;;;;;;;0.52;0.32;;;;;;;14.10;100.00;101061.97;6273649;28;20052;-78
2021/09/16 05:23:32;;;;;;;1.77;0.30;;;;;;;14.08;100.00;101055.94;6274533;28;20053;-77
2021/09/16 05:26:34;;;;;;;0.40;0.40;;;;;;;14.08;100.00;101055.94;6273850;28;20056;-77
2021/09/16 05:29:36;;;;;;;1.20;0.30;;;;;;;14.07;100.00;101059.53;6274907;28;20045;-78
2021/09/16 05:32:38;;;;;;;2.35;0.60;;;;;;;14.10;100.00;101060.19;6275641;28;20416;-77
2021/09/16 05:35:40;;;;;;;1.85;0.40;;;;;;;14.07;100.00;101060.38;6274928;28;20055;-79
2021/09/16 05:38:42;;;;;;;0.30;0.30;;;;;;;14.07;100.00;101064.81;6276727;28;20056;-79
2021/09/16 05:41:44;;;;;;;0.32;0.32;;;;;;;14.04;100.00;101057.09;6274760;28;20056;-77
2021/09/16 05:44:46;;;;;;;0.32;0.30;;;;;;;14.00;100.00;101063.50;6272333;28;20048;-79
2021/09/16 05:47:47;;;;;;;1.50;0.20;;;;;;;14.01;100.00;101057.28;6272840;28;20076;-78
2021/09/16 05:50:48;;;;;;;0.40;0.40;;;;;;;13.96;100.00;101058.41;6271828;28;20049;-78
2021/09/16 05:53:50;;;;;;;0.20;0.20;;;;;;;13.92;100.00;101048.13;6272187;28;20053;-78
2021/09/16 05:56:52;;;;;;;0.40;0.40;;;;;;;13.91;100.00;101057.84;6272222;28;20049;-76
2021/09/16 05:59:54;;;;;;;0.63;0.43;;;;;;;13.91;100.00;101057.84;6272620;28;20056;-79
2021/09/16 06:02:55;;;;;;;3.35;1.33;;;;;;;13.90;100.00;101055.31;6272799;28;20511;-78
2021/09/16 06:05:56;;;;;;;0.95;0.65;;;;;;;13.90;100.00;101057.97;6272389;28;20045;-79
2021/09/16 06:08:58;;;;;;;3.00;0.65;;;;;;;13.95;100.00;101054.06;6272094;28;20060;-78
2021/09/16 06:12:02;;;;;;;0.40;0.40;;;;;;;14.02;100.00;101058.97;6272485;28;20060;-79
2021/09/16 06:15:04;;;;;;;1.77;0.75;;;;;;;14.08;100.00;101055.94;6272442;28;20045;-78
2021/09/16 06:18:06;;;;;;;1.73;0.30;;;;;;;14.14;100.00;101060.84;6272147;28;20045;-76
2021/09/16 06:21:07;;;;;;;2.90;0.70;;;;;;;14.16;100.00;101066.88;6272062;28;20684;-78
2021/09/16 06:24:09;;;;;;;3.55;2.28;;;;;;;14.24;100.00;101067.25;6271745;28;20053;-78
2021/09/16 06:27:11;;;;;;;1.63;0.60;;;;;;;14.18;100.00;101072.94;6272308;28;20053;-77
2021/09/16 06:30:13;;;;;;;0.85;0.45;;;;;;;14.22;100.00;101074.44;6291371;23;20488;-76
2021/09/16 06:33:15;;;;;;;1.33;0.90;;;;;;;14.26;100.00;101075.94;6271567;28;20053;-77
2021/09/16 06:36:16;;;;;;;0.77;0.40;;;;;;;14.19;100.00;101075.47;6272090;28;20480;-76
2021/09/16 06:39:17;;;;;;;1.42;0.80;;;;;;;14.19;100.00;101078.09;6268964;28;20050;-78
2021/09/16 06:42:20;;;;;;;0.28;0.28;;;;;;;14.21;100.00;101080.66;6252323;28;20060;-79
2021/09/16 06:45:21;;;;;;;2.38;0.40;;;;;;;14.20;100.00;101086.88;6251816;28;20045;-78
2021/09/16 06:48:23;;;;;;;0.45;0.43;;;;;;;14.20;100.00;101090.38;6252683;28;20057;-79
2021/09/16 06:51:25;;;;;;;2.72;0.50;;;;;;;14.09;100.00;101099.94;6253024;28;20060;-79
2021/09/16 06:54:26;;;;;;;0.40;0.40;;;;;;;14.00;100.00;101111.06;6252723;28;20053;-79
2021/09/16 06:57:29;;;;;;;3.47;0.52;;;;;;;13.93;100.00;101103.50;6252586;28;20512;-78
2021/09/16 07:00:30;;;;;;;6.32;0.60;;;;;;;13.77;100.00;101115.97;6252295;28;20056;-78
2021/09/16 07:03:32;;;;;;;1.35;0.68;;;;;;;13.74;100.00;101099.47;6252227;28;20515;-79
2021/09/16 07:06:33;;;;;;;0.70;0.70;;;;;;;13.63;100.00;101103.59;6253569;28;20046;-75
2021/09/16 07:09:34;;;;;;;0.90;0.70;;;;;;;13.65;100.00;101116.72;6253359;28;20420;-78
2021/09/16 07:12:37;;;;;;;0.90;0.30;;;;;;;13.57;100.00;101118.97;6250015;28;20513;-76
2021/09/16 07:15:39;;;;;;;1.73;0.60;;;;;;;13.57;100.00;101116.31;6249432;28;20069;-77
2021/09/16 07:18:40;;;;;;;2.80;0.70;;;;;;;13.61;100.00;101113.41;6250077;28;20053;-75
2021/09/16 07:21:41;;;;;;;1.38;0.80;;;;;;;13.58;100.00;101110.09;6249519;28;20268;-77
2021/09/16 07:24:42;;;;;;;0.73;0.70;;;;;;;13.62;100.00;101114.25;6249504;28;20049;-76
2021/09/16 07:27:47;;;;;;;1.92;0.98;;;;;;;13.62;100.00;101119.53;6249719;28;20053;-76
2021/09/16 07:30:48;;;;;;;1.42;0.70;;;;;;;13.67;100.00;101120.09;6249688;28;20049;-75
2021/09/16 07:33:49;;;;;;;1.88;1.20;;;;;;;13.66;100.00;101116.59;6248758;28;20060;-77
2021/09/16 07:36:51;;;;;;;1.98;0.80;;;;;;;13.73;100.00;101117.09;6249454;28;20053;-76
2021/09/16 07:39:52;;;;;;;0.68;0.68;;;;;;;13.78;100.00;101116.81;6249446;28;20057;-76
2021/09/16 07:42:55;;;;;;;4.80;1.00;;;;;;;13.80;100.00;101110.47;6249558;28;20049;-76
2021/09/16 07:45:56;;;;;;;0.95;0.85;;;;;;;13.81;100.00;101122.78;6249335;28;20056;-76
2021/09/16 07:48:58;;;;;;;4.10;1.00;;;;;;;13.87;100.00;101124.19;6248651;28;20049;-77
2021/09/16 07:51:59;;;;;;;3.75;1.15;;;;;;;13.91;100.00;101129.19;6251236;28;20052;-78
2021/09/16 07:55:00;;;;;;;1.20;1.10;;;;;;;13.92;100.00;101133.53;6252213;28;20056;-78
2021/09/16 07:58:03;;;;;;;3.35;1.70;;;;;;;13.99;100.00;101135.78;6252458;28;20053;-78
2021/09/16 08:01:04;;;;;;;1.38;1.27;;;;;;;14.01;100.00;101141.84;6251879;28;20049;-78
2021/09/16 08:04:06;;;;;;;1.45;1.27;;;;;;;14.01;100.00;101147.97;6253021;28;20057;-77
2021/09/16 08:07:07;;;;;;;1.95;1.58;;;;;;;14.02;100.00;101149.66;6251343;28;20477;-78
2021/09/16 08:10:10;;;;;;;1.60;1.30;;;;;;;14.03;100.00;101151.34;6252378;28;20046;-78
2021/09/16 08:13:12;;;;;;;5.40;1.50;;;;;;;14.05;100.00;101140.72;6252123;28;20053;-78
2021/09/16 08:16:14;;;;;;;1.65;1.30;;;;;;;14.12;100.00;101147.28;6251805;28;20052;-79
2021/09/16 08:19:16;;;;;;;1.90;1.40;;;;;;;14.16;100.00;101147.00;6251448;28;20441;-76
2021/09/16 08:22:17;;;;;;;4.97;1.70;;;;;;;14.10;100.00;101141.28;6251412;28;20448;-79
2021/09/16 08:25:19;;;;;;;2.13;1.60;;;;;;;14.11;100.00;101151.75;6250799;28;20440;-80
2021/09/16 08:28:21;;;;;;;3.65;1.55;;;;;;;14.21;100.00;101150.22;6251898;28;20057;-78
2021/09/16 08:31:23;;;;;;;1.90;1.80;;;;;;;14.27;100.00;101151.66;6250851;28;20420;-79
2021/09/16 08:34:26;;;;;;;4.78;1.58;;;;;;;14.36;100.00;101160.81;6249459;28;20049;-79
2021/09/16 08:37:27;;;;;;;1.83;1.60;;;;;;;14.47;100.00;101164.47;6249967;28;20048;-78
2021/09/16 08:40:29;;;;;;;3.53;1.50;;;;;;;14.53;100.00;101157.97;6250741;28;20053;-78
2021/09/16 08:43:33;;;;;;;3.42;2.13;;;;;;;14.58;100.00;101162.97;6250636;28;20049;-79
2021/09/16 08:46:35;;;;;;;3.00;2.08;;;;;;;14.61;100.00;101163.63;6251188;28;20042;-78
2021/09/16 08:49:36;;;;;;;2.15;1.73;;;;;;;14.71;100.00;101167.38;6250778;28;20057;-79
2021/09/16 08:52:39;;;;;;;3.50;2.10;;;;;;;14.77;100.00;101165.31;6250196;28;20496;-79
2021/09/16 08:55:40;;;;;;;2.17;1.77;;;;;;;14.89;100.00;101161.84;6250450;28;20402;-78
2021/09/16 08:58:46;;;;;;;3.10;1.77;;;;;;;14.96;100.00;101150.78;6250749;28;20061;-78
2021/09/16 09:01:47;;;;;;;2.38;1.48;;;;;;;15.07;100.00;101158.00;6250319;28;20049;-78
2021/09/16 09:04:49;;;;;;;1.65;1.48;;;;;;;15.14;100.00;101156.66;6250110;28;20069;-77
2021/09/16 09:07:52;;;;;;;1.60;1.45;;;;;;;15.15;100.00;101150.41;6250611;28;20049;-78
2021/09/16 09:10:55;;;;;;;2.08;1.52;;;;;;;15.25;100.00;101148.00;6250160;28;20053;-78
2021/09/16 09:13:58;;;;;;;2.13;1.42;;;;;;;15.35;100.00;101143.81;6251468;28;20056;-78
2021/09/16 09:17:01;;;;;;;1.75;1.45;;;;;;;15.38;100.00;101151.53;6251715;28;20054;-78
2021/09/16 09:20:08;;;;;;;1.98;1.40;;;;;;;15.44;100.00;101145.84;6252749;28;20054;-77
2021/09/16 09:23:22;;;;;;;3.42;1.75;;;;;;;15.40;100.00;101151.44;6249791;28;20107;-79
2021/09/16 09:26:26;;;;;;;4.90;1.63;;;;;;;15.50;100.00;101162.28;6252642;28;20143;-78
2021/09/16 09:29:30;;;;;;;2.13;1.70;;;;;;;15.52;100.00;101155.06;6250088;28;20058;-78
2021/09/16 09:32:48;;;;;;;5.10;1.48;;;;;;;15.48;100.00;101155.25;6251301;28;20052;-77
2021/09/16 09:35:50;;;;;;;5.85;2.08;;;;;;;15.40;100.00;101156.75;6251366;28;20077;-79
2021/09/16 09:38:57;;;;;;;3.72;1.70;;;;;;;15.38;100.00;101158.63;6250541;28;20421;-78
2021/09/16 09:42:15;;;;;;;2.83;1.60;;;;;;;15.37;100.00;101157.78;6251171;28;20049;-78
2021/09/16 09:45:17;;;;;;;3.10;1.40;;;;;;;15.46;100.00;101164.28;6250177;28;20049;-78
2021/09/16 09:48:19;;;;;;;2.10;1.77;;;;;;;15.45;100.00;101170.53;6249979;28;20053;-79
2021/09/16 09:51:20;;;;;;;3.55;1.65;;;;;;;15.43;100.00;101177.72;6251787;28;20053;-79
2021/09/16 09:54:28;;;;;;;2.92;1.67;;;;;;;15.51;100.00;101180.69;6250406;28;20050;-79
2021/09/16 09:57:29;;;;;;;1.80;1.25;;;;;;;15.54;100.00;101167.25;6249863;28;20045;-79
2021/09/16 10:00:32;;;;;;;2.63;1.80;;;;;;;15.52;100.00;101171.78;6251225;28;20045;-77
2021/09/16 10:03:34;;;;;;;3.78;1.75;;;;;;;15.50;100.00;101172.88;6250399;28;20527;-78
2021/09/16 10:06:36;;;;;;;2.85;1.58;;;;;;;15.59;100.00;101167.78;6251897;28;20045;-78
2021/09/16 10:09:37;;;;;;;2.42;1.73;;;;;;;15.67;100.00;101165.50;6250363;28;20184;-78
2021/09/16 10:12:40;;;;;;;2.17;1.73;;;;;;;15.78;100.00;101163.91;6255107;28;20052;-78
2021/09/16 10:15:42;;;;;;;4.90;2.00;;;;;;;15.88;100.00;101159.69;6255427;28;20056;-79
2021/09/16 10:18:44;;;;;;;2.28;1.33;;;;;;;16.04;100.00;101160.31;6256841;28;20049;-79
2021/09/16 10:21:46;;;;;;;5.40;1.45;;;;;;;16.18;100.00;101173.47;6254233;28;20049;-78
2021/09/16 10:24:48;;;;;;;2.00;1.70;;;;;;;16.45;100.00;101168.00;6255597;28;20476;-79
2021/09/16 10:27:57;;;;;;;3.40;1.40;;;;;;;16.56;100.00;101169.03;6254834;28;20046;-78
2021/09/16 10:31:00;;;;;;;;;;;;;;;16.55;100.00;101173.50;6254229;28;20061;-80
2021/09/16 10:34:40;;;;;;;2.47;1.40;;;;;;;16.55;100.00;101181.47;6254485;28;19921;-79
2021/09/16 10:37:42;;;;;;;3.60;2.17;;;;;;;16.46;100.00;101182.13;6252884;28;20512;-81
2021/09/16 10:40:43;;;;;;;1.42;1.17;;;;;;;16.37;100.00;101180.13;6251607;28;20049;-81
2021/09/16 10:43:47;;;;;;;3.40;1.70;;;;;;;16.32;100.00;101169.00;6251389;28;20129;-80
2021/09/16 10:46:52;;;;;;;2.00;1.13;;;;;;;16.32;100.00;101172.50;6251357;28;20045;-80
2021/09/16 10:49:53;;;;;;;1.52;1.13;;;;;;;16.45;100.00;101170.66;6252448;28;20417;-79
2021/09/16 10:53:34;;;;;;;2.10;1.13;;;;;;;16.50;100.00;101170.34;6256438;28;20057;-79
2021/09/16 10:56:38;;;;;;;2.60;1.42;;;;;;;16.53;100.00;101171.91;6258737;28;20641;-79
2021/09/16 11:00:06;;;;;;;1.83;1.35;;;;;;;16.64;100.00;101164.88;6255190;28;20049;-78
2021/09/16 11:03:08;;;;;;;1.58;1.38;;;;;;;16.70;100.00;101171.56;6256358;28;20389;-79
2021/09/16 11:06:10;;;;;;;1.10;0.85;;;;;;;16.70;100.00;101164.44;6257514;28;20056;-79
2021/09/16 11:09:12;;;;;;;2.03;1.48;;;;;;;16.63;100.00;101170.31;6256863;28;20049;-79
2021/09/16 11:12:29;;;;;;;3.35;1.80;;;;;;;16.56;100.00;101177.84;6254884;28;20108;-78
2021/09/16 11:15:33;;;;;;;1.20;1.10;;;;;;;16.55;100.00;101175.31;6256332;28;20052;-78
2021/09/16 11:18:36;;;;;;;1.58;1.10;;;;;;;16.51;100.00;101173.84;6255092;28;20517;-79
2021/09/16 11:21:37;;;;;;;3.22;1.33;;;;;;;16.43;100.00;101159.31;6256021;28;20053;-78
2021/09/16 11:24:41;;;;;;;2.90;1.48;;;;;;;16.41;100.00;101177.16;6258792;28;20523;-78
2021/09/16 11:27:43;;;;;;;1.75;1.27;;;;;;;16.39;100.00;101179.03;6266943;28;20764;-79
2021/09/16 11:30:47;;;;;;;2.45;1.45;;;;;;;16.44;100.00;101176.94;6264224;28;20049;-80
2021/09/16 11:33:50;;;;;;;3.00;1.45;;;;;;;16.54;100.00;101181.59;6262993;28;20557;-80
2021/09/16 11:37:06;;;;;;;3.47;1.35;;;;;;;16.61;100.00;101185.47;6265446;28;20048;-79
2021/09/16 11:40:10;;;;;;;1.90;1.40;;;;;;;16.74;100.00;101183.69;6263877;28;20046;-80
2021/09/16 11:43:13;;;;;;;1.42;1.10;;;;;;;16.83;100.00;101183.00;6269552;28;20052;-80
2021/09/16 11:46:18;;;;;;;5.40;1.08;;;;;;;16.97;100.00;101177.53;6274835;28;20049;-79
2021/09/16 11:49:21;;;;;;;3.10;2.08;;;;;;;17.05;100.00;101179.63;6278735;28;20480;-80
2021/09/16 11:52:23;;;;;;;1.45;1.10;;;;;;;17.06;100.00;101176.00;6277552;28;20056;-79
2021/09/16 11:55:25;;;;;;;2.47;1.30;;;;;;;16.95;100.00;101166.19;6277473;28;20470;-80
2021/09/16 11:58:29;;;;;;;4.35;1.73;;;;;;;16.84;100.00;101163.47;6276556;28;20049;-79
2021/09/16 12:01:30;;;;;;;1.77;1.30;;;;;;;16.77;100.00;101172.00;6275803;28;20792;-78
2021/09/16 12:04:42;;;;;;;1.15;1.05;;;;;;;16.68;100.00;101173.47;6276586;28;20056;-80
2021/09/16 12:07:44;;;;;;;1.58;1.10;;;;;;;16.76;100.00;101170.28;6277302;28;20127;-80
2021/09/16 12:10:49;;;;;;;2.03;1.20;;;;;;;16.75;100.00;101169.44;6276869;28;20045;-79
2021/09/16 12:13:52;;;;;;;1.35;1.13;;;;;;;16.86;100.00;101166.88;6275579;28;20053;-79
2021/09/16 12:17:02;;;;;;;2.20;0.82;;;;;;;16.86;100.00;101161.56;6273432;28;20060;-80
2021/09/16 12:20:06;;;;;;;1.70;0.85;;;;;;;16.91;100.00;101171.84;6273343;28;20053;-80
2021/09/16 12:23:11;;;;;;;2.05;0.98;;;;;;;17.06;100.00;101161.88;6272921;28;20076;-80
2021/09/16 12:26:18;;;;;;;2.55;0.55;;;;;;;16.99;100.00;101167.66;6273039;28;20158;-78
2021/09/16 12:29:23;;;;;;;0.77;0.55;;;;;;;17.03;100.00;101170.06;6273319;28;20053;-79
2021/09/16 12:32:30;;;;;;;1.02;0.80;;;;;;;17.17;98.57;101170.78;6285466;23;20044;-74
2021/09/16 12:35:33;;;;;;;1.77;0.50;;;;;;;17.21;96.75;101171.38;6269714;28;20053;-73
2021/09/16 12:38:39;;;;;;;1.33;0.90;;;;;;;17.20;98.92;101167.88;6272718;28;20053;-73
2021/09/16 12:41:43;;;;;;;1.70;0.70;;;;;;;17.27;96.24;101157.66;6249189;28;20053;-74
2021/09/16 12:44:44;;;;;;;0.63;0.60;;;;;;;17.31;98.78;101172.41;6248660;28;20049;-72
2021/09/16 12:47:48;;;;;;;2.60;0.60;;;;;;;17.50;98.27;101174.50;6270928;28;20045;-73
2021/09/16 12:51:10;;;;;;;0.90;0.57;;;;;;;18.08;94.72;101175.41;6272136;28;20126;-74
2021/09/16 12:54:19;;;;;;;0.90;0.57;;;;;;;18.73;90.62;101166.66;6271782;28;20056;-73
2021/09/16 12:57:22;;;;;;;;;;;;;;;19.11;86.04;101167.16;6271908;28;20041;-74
2021/09/16 13:00:24;;;;;;;1.52;0.70;;;;;;;19.03;83.58;101167.81;6271315;28;19928;-74
2021/09/16 13:03:26;;;;;;;0.70;0.70;;;;;;;18.80;83.07;101160.84;6271342;28;20122;-74
2021/09/16 13:06:31;;;;;;;1.13;0.57;;;;;;;18.51;83.28;101148.88;6271219;28;20071;-74
2021/09/16 13:09:34;;;;;;;0.90;0.70;;;;;;;18.32;86.69;101147.81;6268979;28;20134;-73
2021/09/16 13:12:35;;;;;;;1.67;0.60;;;;;;;18.25;88.84;101150.09;6271583;28;20419;-74
2021/09/16 13:15:38;;;;;;;0.70;0.70;;;;;;;18.22;90.10;101148.56;6271308;28;20057;-73
2021/09/16 13:18:40;;;;;;;1.30;0.80;;;;;;;18.27;86.22;101150.84;6271847;28;20048;-73
2021/09/16 13:21:42;;;;;;;0.40;0.40;;;;;;;18.08;85.95;101148.78;6271530;28;20064;-73
2021/09/16 13:24:44;;;;;;;1.20;0.65;;;;;;;17.83;88.33;101154.31;6271368;28;20496;-74
2021/09/16 13:27:45;;;;;;;0.68;0.47;;;;;;;17.74;89.33;101156.72;6271474;28;20049;-74
2021/09/16 13:30:46;;;;;;;0.82;0.60;;;;;;;17.78;89.35;101156.50;6271407;28;20041;-73
2021/09/16 13:33:48;;;;;;;0.85;0.60;;;;;;;17.59;91.11;101168.50;6270722;28;20057;-73
2021/09/16 13:36:50;;;;;;;1.48;0.63;;;;;;;17.65;90.50;101164.53;6271311;28;20433;-73
2021/09/16 13:39:52;;;;;;;2.28;1.20;;;;;;;17.46;93.78;101179.22;6271243;28;20045;-77
2021/09/16 13:42:53;;;;;;;2.03;0.60;;;;;;;17.42;94.08;101191.03;6271087;28;20084;-73
2021/09/16 13:45:54;;;;;;;0.60;0.40;;;;;;;17.00;93.81;101179.13;6271527;28;20055;-73
2021/09/16 13:48:56;;;;;;;0.70;0.50;;;;;;;16.61;94.80;101185.47;6276428;28;20515;-74
2021/09/16 13:51:59;;;;;;;1.33;0.57;;;;;;;16.36;97.67;101173.13;6276300;28;20049;-72
2021/09/16 13:55:00;;;;;;;1.38;0.73;;;;;;;16.24;99.35;101170.38;6276123;28;20052;-73
2021/09/16 13:58:01;;;;;;;0.50;0.50;;;;;;;16.18;99.92;101169.97;6276274;28;20087;-73
2021/09/16 14:01:04;;;;;;;0.70;0.50;;;;;;;16.18;99.88;101165.50;6275848;28;20053;-75
2021/09/16 14:04:05;;;;;;;0.63;0.60;;;;;;;16.24;100.00;101161.56;6275892;28;20094;-74